^^
Meteosantamaria
 
Giornaliero Rapporto per Febbraio 21, 2018 Unità:  Metrico    Imperiale   Entrambi
« Precedente
Prossimo »
Giornaliero Settimanale Mensile Annuale Personalizzato
  Attuale: Max: Min: Media:
Temperatura: -15.6 °C -17.8 °C -15.9 °C -15.6 °C
Punto di rugiada: -18.9 °C -17.8 °C -18.9 °C -18.7 °C
Umidità;: 65% Humidity% 63% 66%
Vel.Vento: 41.7km/h 0km/h 10.3km/h 38.6km/h
Raffiche: 41.7km/h 0km/h - -
DirezioneSE - - East
Pressione: 33890.5 hPa 0 hPa 33822.8 hPa -
Pioggia: 0 mm      
Historical Graphs
 
 
Dati di Febbraio 21, 2018
Ora Temperatura Punto di rugiada Pressione Direzione Vento Raffiche Umidità Intensità pioggia Condizioni del cielo
-17.8 °C -17.8 °C 0 hPa Calm     Humidity% 0 mm Conditions
00:03 -15.3 °C -18.9 °C 33856.6 hPa East 62.6 km/h 62.6 km/h 63% 0 mm BKN
00:08 -15.3 °C -18.8 °C 33856.6 hPa East 48 km/h 48 km/h 64% 0 mm BKN
00:13 -15.3 °C -18.8 °C 33856.6 hPa East 60.3 km/h 60.3 km/h 64% 0 mm BKN
00:18 -15.4 °C -18.8 °C 33856.6 hPa East 70.6 km/h 70.6 km/h 64% 0 mm BKN
00:23 -15.4 °C -18.8 °C 33856.6 hPa ENE 66.8 km/h 66.8 km/h 64% 0 mm BKN
00:28 -15.3 °C -18.8 °C 33856.6 hPa NNE 63.9 km/h 63.9 km/h 64% 0 mm BKN
00:33 -15.3 °C -18.9 °C 33856.6 hPa East 57.5 km/h 57.5 km/h 63% 0 mm BKN
00:38 -15.3 °C -18.8 °C 33856.6 hPa East 54.4 km/h 54.4 km/h 63% 0 mm BKN
00:43 -15.3 °C -18.8 °C 33856.6 hPa NE 70.6 km/h 70.6 km/h 63% 0 mm BKN
00:48 -15.3 °C -18.9 °C 33856.6 hPa NE 60.3 km/h 60.3 km/h 63% 0 mm BKN
00:53 -15.3 °C -18.9 °C 33856.6 hPa NE 64.7 km/h 64.7 km/h 63% 0 mm BKN
00:58 -15.3 °C -18.9 °C 33856.6 hPa ENE 50.7 km/h 50.7 km/h 63% 0 mm BKN
01:03 -15.3 °C -18.8 °C 33856.6 hPa ENE 53.6 km/h 53.6 km/h 64% 0 mm BKN
01:08 -15.3 °C -18.8 °C 33856.6 hPa NE 69.4 km/h 69.4 km/h 64% 0 mm BKN
01:13 -15.4 °C -18.8 °C 33856.6 hPa East 56.6 km/h 56.6 km/h 64% 0 mm BKN
01:18 -15.4 °C -18.8 °C 33856.6 hPa ENE 71.5 km/h 71.5 km/h 64% 0 mm BKN
01:23 -15.4 °C -18.8 °C 33856.6 hPa NE 88.4 km/h 88.4 km/h 64% 0 mm BKN
01:28 -15.4 °C -18.8 °C 33856.6 hPa NE 47.6 km/h 47.6 km/h 64% 0 mm BKN
01:33 -15.3 °C -18.8 °C 33856.6 hPa East 53.6 km/h 53.6 km/h 64% 0 mm BKN
01:38 -15.3 °C -18.7 °C 33856.6 hPa East 80.5 km/h 80.5 km/h 64% 0 mm BKN
01:43 -15.3 °C -18.8 °C 33856.6 hPa ENE 67.9 km/h 67.9 km/h 64% 0 mm BKN
01:48 -15.3 °C -18.7 °C 33856.6 hPa NE 74.5 km/h 74.5 km/h 64% 0 mm BKN
01:53 -15.2 °C -18.7 °C 33856.6 hPa ENE 35.7 km/h 35.7 km/h 64% 0 mm BKN
01:58 -15.3 °C -18.7 °C 33856.6 hPa ENE 54.6 km/h 54.6 km/h 64% 0 mm BKN
02:03 -15.3 °C -18.7 °C 33856.6 hPa ENE 38.8 km/h 38.8 km/h 64% 0 mm BKN
02:08 -15.3 °C -18.6 °C 33856.6 hPa ENE 53.6 km/h 53.6 km/h 65% 0 mm BKN
02:13 -15.3 °C -18.6 °C 33856.6 hPa ENE 44.7 km/h 44.7 km/h 65% 0 mm BKN
02:19 -15.3 °C -18.6 °C 33856.6 hPa NE 43 km/h 43 km/h 65% 0 mm BKN
02:24 -15.4 °C -18.8 °C 33856.6 hPa NNE 25.1 km/h 25.1 km/h 65% 0 mm BKN
02:29 -15.6 °C -18.8 °C 33856.6 hPa NE 26.9 km/h 26.9 km/h 66% 0 mm BKN
02:34 -15.6 °C -18.7 °C 33856.6 hPa NE 18.7 km/h 18.7 km/h 67% 0 mm BKN
02:39 -15.7 °C -18.7 °C 33856.6 hPa NNE 29.8 km/h 29.8 km/h 68% 0 mm BKN
02:44 -15.6 °C -18.6 °C 33856.6 hPa East 27.2 km/h 27.2 km/h 68% 0 mm BKN
02:49 -15.6 °C -18.6 °C 33856.6 hPa NNE 18.7 km/h 18.7 km/h 68% 0 mm BKN
02:54 -15.6 °C -18.6 °C 33856.6 hPa NNE 18.7 km/h 18.7 km/h 68% 0 mm BKN
02:59 -15.6 °C -18.6 °C 33856.6 hPa NE 20.9 km/h 20.9 km/h 68% 0 mm BKN
03:04 -15.6 °C -18.6 °C 33856.6 hPa NNE 23.8 km/h 23.8 km/h 68% 0 mm BKN
03:09 -15.6 °C -18.6 °C 33856.6 hPa NNE 20 km/h 20 km/h 68% 0 mm BKN
03:14 -15.6 °C -18.6 °C 33856.6 hPa North 30.1 km/h 30.1 km/h 68% 0 mm BKN
03:19 -15.6 °C -18.6 °C 33856.6 hPa NNE 43 km/h 43 km/h 68% 0 mm BKN
03:24 -15.6 °C -18.6 °C 33856.6 hPa NNE 26.4 km/h 26.4 km/h 68% 0 mm BKN
03:29 -15.5 °C -18.5 °C 33856.6 hPa North 20.9 km/h 20.9 km/h 68% 0 mm BKN
03:34 -15.6 °C -18.6 °C 33856.6 hPa NE 25.1 km/h 25.1 km/h 68% 0 mm BKN
03:39 -15.6 °C -18.6 °C 33856.6 hPa NNE 27.2 km/h 27.2 km/h 68% 0 mm BKN
03:44 -15.6 °C -18.6 °C 33856.6 hPa NNE 26.9 km/h 26.9 km/h 68% 0 mm BKN
03:49 -15.6 °C -18.6 °C 33856.6 hPa NNW 17.9 km/h 17.9 km/h 68% 0 mm BKN
03:54 -15.7 °C -18.4 °C 33856.6 hPa ENE 18.2 km/h 18.2 km/h 70% 0 mm BKN
03:59 -15.7 °C -18.6 °C 33890.5 hPa NNW 17.9 km/h 17.9 km/h 69% 0 mm BKN
04:04 -15.7 °C -18.6 °C 33890.5 hPa NNW 10.3 km/h 10.3 km/h 69% 0 mm BKN
04:09 -15.7 °C -18.6 °C 33890.5 hPa North 17.9 km/h 17.9 km/h 69% 0 mm BKN
04:14 -15.7 °C -18.6 °C 33856.6 hPa NNE 43 km/h 43 km/h 69% 0 mm BKN
04:19 -15.8 °C -18.7 °C 33856.6 hPa NE 38.8 km/h 38.8 km/h 69% 0 mm BKN
04:24 -15.8 °C -18.7 °C 33856.6 hPa NE 31.1 km/h 31.1 km/h 69% 0 mm BKN
04:29 -15.8 °C -18.7 °C 33822.8 hPa NE 47.6 km/h 47.6 km/h 69% 0 mm BKN
04:34 -15.8 °C -18.7 °C 33822.8 hPa NNE 47.2 km/h 47.2 km/h 69% 0 mm BKN
04:39 -15.8 °C -18.7 °C 33822.8 hPa NE 54.6 km/h 54.6 km/h 69% 0 mm BKN
04:44 -15.9 °C -18.7 °C 33856.6 hPa NNE 34 km/h 34 km/h 70% 0 mm BKN
04:49 -15.8 °C -18.6 °C 33856.6 hPa NE 45.9 km/h 45.9 km/h 70% 0 mm BKN
04:54 -15.8 °C -18.6 °C 33856.6 hPa NE 38.8 km/h 38.8 km/h 70% 0 mm BKN
04:59 -15.8 °C -18.6 °C 33856.6 hPa NNE 32.8 km/h 32.8 km/h 70% 0 mm BKN
05:04 -15.8 °C -18.6 °C 33856.6 hPa East 32.8 km/h 32.8 km/h 70% 0 mm BKN
05:09 -15.8 °C -18.7 °C 33856.6 hPa East 30.3 km/h 30.3 km/h 69% 0 mm BKN
05:14 -15.8 °C -18.7 °C 33856.6 hPa East 31.1 km/h 31.1 km/h 69% 0 mm BKN
05:19 -15.8 °C -18.8 °C 33856.6 hPa ENE 32.8 km/h 32.8 km/h 68% 0 mm BKN
05:24 -15.8 °C -18.8 °C 33856.6 hPa East 30.3 km/h 30.3 km/h 68% 0 mm BKN
05:29 -15.8 °C -18.8 °C 33856.6 hPa NE 31.1 km/h 31.1 km/h 68% 0 mm BKN
05:34 -15.8 °C -18.8 °C 33856.6 hPa NE 32.8 km/h 32.8 km/h 68% 0 mm BKN
05:39 -15.8 °C -18.8 °C 33856.6 hPa North 27.2 km/h 27.2 km/h 68% 0 mm BKN
05:44 -15.8 °C -18.8 °C 33856.6 hPa North 38.8 km/h 38.8 km/h 68% 0 mm BKN
05:49 -15.8 °C -18.8 °C 33856.6 hPa ENE 33.2 km/h 33.2 km/h 68% 0 mm BKN
05:54 -15.7 °C -18.7 °C 33856.6 hPa NNE 32.8 km/h 32.8 km/h 68% 0 mm BKN
05:59 -15.7 °C -18.7 °C 33856.6 hPa East 32.7 km/h 32.7 km/h 68% 0 mm BKN
06:04 -15.7 °C -18.7 °C 33856.6 hPa NE 38.8 km/h 38.8 km/h 68% 0 mm BKN
06:09 -15.7 °C -18.7 °C 33856.6 hPa East 47.6 km/h 47.6 km/h 68% 0 mm BKN
06:14 -15.7 °C -18.7 °C 33856.6 hPa East 39.6 km/h 39.6 km/h 68% 0 mm BKN
06:19 -15.7 °C -18.7 °C 33856.6 hPa SW 31.1 km/h 31.1 km/h 68% 0 mm BKN
06:24 -15.7 °C -18.7 °C 33856.6 hPa ENE 24.3 km/h 24.3 km/h 68% 0 mm BKN
06:29 -15.7 °C -18.7 °C 33856.6 hPa East 11.9 km/h 11.9 km/h 68% 0 mm BKN
06:34 -15.7 °C -18.7 °C 33856.6 hPa NNE 23.8 km/h 23.8 km/h 68% 0 mm BKN
06:39 -15.7 °C -18.7 °C 33856.6 hPa East 18.2 km/h 18.2 km/h 68% 0 mm BKN
06:44 -15.7 °C -18.7 °C 33856.6 hPa East 20 km/h 20 km/h 68% 0 mm BKN
06:49 -15.7 °C -18.8 °C 33856.6 hPa NE 31.9 km/h 31.9 km/h 67% 0 mm BKN
06:54 -15.7 °C -18.8 °C 33856.6 hPa NE 27.2 km/h 27.2 km/h 67% 0 mm BKN
06:59 -15.7 °C -18.8 °C 33856.6 hPa NNE 28 km/h 28 km/h 67% 0 mm BKN
07:04 -15.8 °C -18.8 °C 33856.6 hPa NE 44.7 km/h 44.7 km/h 67% 0 mm BKN
07:09 -15.7 °C -18.8 °C 33856.6 hPa ENE 38.8 km/h 38.8 km/h 67% 0 mm BKN
07:14 -15.7 °C -18.8 °C 33890.5 hPa ENE 23.8 km/h 23.8 km/h 67% 0 mm BKN
07:19 -15.8 °C -18.8 °C 33890.5 hPa SE 40.4 km/h 40.4 km/h 67% 0 mm BKN
07:24 -15.8 °C -18.8 °C 33890.5 hPa NE 38.8 km/h 38.8 km/h 67% 0 mm BKN
07:29 -15.8 °C -18.9 °C 33856.6 hPa NNE 32.8 km/h 32.8 km/h 67% 0 mm BKN
07:34 -15.8 °C -18.9 °C 33856.6 hPa NNE 23.8 km/h 23.8 km/h 67% 0 mm BKN
07:39 -15.8 °C -18.9 °C 33856.6 hPa NE 32.8 km/h 32.8 km/h 67% 0 mm BKN
07:44 -15.8 °C -18.8 °C 33856.6 hPa East 32.8 km/h 32.8 km/h 67% 0 mm BKN
07:49 -15.7 °C -18.8 °C 33856.6 hPa SSE 41.7 km/h 41.7 km/h 67% 0 mm BKN
07:54 -15.7 °C -18.9 °C 33856.6 hPa North 25.1 km/h 25.1 km/h 66% 0 mm BKN
07:59 -15.6 °C -18.9 °C 33890.5 hPa NE 48.6 km/h 48.6 km/h 65% 0 mm BKN
08:04 -15.6 °C -18.8 °C 33890.5 hPa ENE 40.4 km/h 40.4 km/h 66% 0 mm BKN
08:09 -15.6 °C -18.9 °C 33890.5 hPa SE 41.7 km/h 41.7 km/h 65% 0 mm BKN
Meteosantamaria, Umbria, ITALIA
per gentile concessione di Weather Underground - 2.75 mb